sensor_id;sensor_type;location;lat;lon;timestamp;P1;durP1;ratioP1;P2;durP2;ratioP2
24713;SDS011;12820;51.580;5.010;2023-09-19T00:02:09;11.65;;;2.20;;
24713;SDS011;12820;51.580;5.010;2023-09-19T00:07:13;11.07;;;2.42;;
24713;SDS011;12820;51.580;5.010;2023-09-19T00:12:16;13.25;;;2.47;;
24713;SDS011;12820;51.580;5.010;2023-09-19T00:17:18;13.88;;;2.80;;
24713;SDS011;12820;51.580;5.010;2023-09-19T00:22:20;12.65;;;2.47;;
24713;SDS011;12820;51.580;5.010;2023-09-19T00:27:22;16.70;;;2.58;;
24713;SDS011;12820;51.580;5.010;2023-09-19T00:32:24;14.50;;;2.72;;
24713;SDS011;12820;51.580;5.010;2023-09-19T00:37:27;13.93;;;2.97;;
24713;SDS011;12820;51.580;5.010;2023-09-19T00:42:29;15.85;;;2.97;;
24713;SDS011;12820;51.580;5.010;2023-09-19T00:47:32;14.98;;;2.78;;
24713;SDS011;12820;51.580;5.010;2023-09-19T00:52:34;13.45;;;2.50;;
24713;SDS011;12820;51.580;5.010;2023-09-19T00:57:41;15.18;;;2.67;;
24713;SDS011;12820;51.580;5.010;2023-09-19T01:02:43;15.70;;;2.63;;
24713;SDS011;12820;51.580;5.010;2023-09-19T01:07:47;10.98;;;2.22;;
24713;SDS011;12820;51.580;5.010;2023-09-19T01:13:13;16.33;;;3.45;;
24713;SDS011;12820;51.580;5.010;2023-09-19T01:18:35;13.73;;;2.83;;
24713;SDS011;12820;51.580;5.010;2023-09-19T01:29:45;14.38;;;3.30;;
24713;SDS011;12820;51.580;5.010;2023-09-19T01:34:49;13.60;;;2.60;;
24713;SDS011;12820;51.580;5.010;2023-09-19T01:39:57;11.52;;;2.22;;
24713;SDS011;12820;51.580;5.010;2023-09-19T01:50:29;13.52;;;2.70;;
24713;SDS011;12820;51.580;5.010;2023-09-19T01:55:41;14.98;;;2.22;;
24713;SDS011;12820;51.580;5.010;2023-09-19T02:00:51;16.20;;;2.72;;
24713;SDS011;12820;51.580;5.010;2023-09-19T02:05:54;12.85;;;2.55;;
24713;SDS011;12820;51.580;5.010;2023-09-19T02:10:57;17.55;;;3.03;;
24713;SDS011;12820;51.580;5.010;2023-09-19T02:15:59;12.95;;;2.35;;
24713;SDS011;12820;51.580;5.010;2023-09-19T02:21:02;14.63;;;2.47;;
24713;SDS011;12820;51.580;5.010;2023-09-19T02:26:05;15.63;;;3.03;;
24713;SDS011;12820;51.580;5.010;2023-09-19T02:31:08;16.63;;;2.35;;
24713;SDS011;12820;51.580;5.010;2023-09-19T02:36:10;14.65;;;2.63;;
24713;SDS011;12820;51.580;5.010;2023-09-19T02:41:12;12.68;;;2.47;;
24713;SDS011;12820;51.580;5.010;2023-09-19T02:46:14;14.32;;;2.13;;
24713;SDS011;12820;51.580;5.010;2023-09-19T02:51:19;16.73;;;3.03;;
24713;SDS011;12820;51.580;5.010;2023-09-19T02:56:22;11.98;;;2.35;;
24713;SDS011;12820;51.580;5.010;2023-09-19T03:01:27;9.20;;;2.03;;
24713;SDS011;12820;51.580;5.010;2023-09-19T03:06:33;12.40;;;2.17;;
24713;SDS011;12820;51.580;5.010;2023-09-19T03:11:35;12.20;;;2.03;;
24713;SDS011;12820;51.580;5.010;2023-09-19T03:16:37;11.27;;;2.17;;
24713;SDS011;12820;51.580;5.010;2023-09-19T03:21:40;12.75;;;2.25;;
24713;SDS011;12820;51.580;5.010;2023-09-19T03:26:42;10.82;;;2.45;;
24713;SDS011;12820;51.580;5.010;2023-09-19T03:31:45;16.73;;;2.33;;
24713;SDS011;12820;51.580;5.010;2023-09-19T03:36:48;13.27;;;1.92;;
24713;SDS011;12820;51.580;5.010;2023-09-19T03:41:50;14.20;;;2.40;;
24713;SDS011;12820;51.580;5.010;2023-09-19T03:46:52;13.75;;;2.17;;
24713;SDS011;12820;51.580;5.010;2023-09-19T03:51:58;11.50;;;2.15;;
24713;SDS011;12820;51.580;5.010;2023-09-19T03:57:00;10.63;;;2.22;;
24713;SDS011;12820;51.580;5.010;2023-09-19T04:02:03;12.02;;;2.20;;
24713;SDS011;12820;51.580;5.010;2023-09-19T04:07:06;11.35;;;2.17;;
24713;SDS011;12820;51.580;5.010;2023-09-19T04:12:09;11.73;;;2.38;;
24713;SDS011;12820;51.580;5.010;2023-09-19T04:17:11;10.95;;;2.30;;
24713;SDS011;12820;51.580;5.010;2023-09-19T04:22:13;13.80;;;2.28;;
24713;SDS011;12820;51.580;5.010;2023-09-19T04:27:16;16.85;;;2.65;;
24713;SDS011;12820;51.580;5.010;2023-09-19T04:32:18;16.05;;;3.25;;
24713;SDS011;12820;51.580;5.010;2023-09-19T04:37:20;13.23;;;2.42;;
24713;SDS011;12820;51.580;5.010;2023-09-19T04:42:23;16.52;;;2.80;;
24713;SDS011;12820;51.580;5.010;2023-09-19T04:47:27;13.40;;;2.80;;
24713;SDS011;12820;51.580;5.010;2023-09-19T04:52:30;17.90;;;3.08;;
24713;SDS011;12820;51.580;5.010;2023-09-19T04:57:33;14.55;;;2.90;;
24713;SDS011;12820;51.580;5.010;2023-09-19T05:02:35;16.23;;;3.55;;
24713;SDS011;12820;51.580;5.010;2023-09-19T05:07:40;14.60;;;2.63;;
24713;SDS011;12820;51.580;5.010;2023-09-19T05:12:44;12.95;;;2.63;;
24713;SDS011;12820;51.580;5.010;2023-09-19T05:17:50;17.48;;;2.50;;
24713;SDS011;12820;51.580;5.010;2023-09-19T05:22:58;15.05;;;2.67;;
24713;SDS011;12820;51.580;5.010;2023-09-19T05:28:07;16.88;;;2.55;;
24713;SDS011;12820;51.580;5.010;2023-09-19T05:33:10;13.93;;;2.15;;
24713;SDS011;12820;51.580;5.010;2023-09-19T05:38:13;18.17;;;2.30;;
24713;SDS011;12820;51.580;5.010;2023-09-19T05:43:15;11.77;;;2.70;;
24713;SDS011;12820;51.580;5.010;2023-09-19T05:48:18;14.00;;;2.35;;
24713;SDS011;12820;51.580;5.010;2023-09-19T05:53:20;16.20;;;2.65;;
24713;SDS011;12820;51.580;5.010;2023-09-19T05:58:22;15.90;;;2.65;;
24713;SDS011;12820;51.580;5.010;2023-09-19T06:03:24;16.02;;;2.25;;
24713;SDS011;12820;51.580;5.010;2023-09-19T06:08:27;16.98;;;2.70;;
24713;SDS011;12820;51.580;5.010;2023-09-19T06:13:32;13.57;;;2.67;;
24713;SDS011;12820;51.580;5.010;2023-09-19T06:18:35;19.30;;;3.55;;
24713;SDS011;12820;51.580;5.010;2023-09-19T06:23:38;17.85;;;2.75;;
24713;SDS011;12820;51.580;5.010;2023-09-19T06:28:40;16.67;;;2.70;;
24713;SDS011;12820;51.580;5.010;2023-09-19T06:34:08;17.27;;;2.70;;
24713;SDS011;12820;51.580;5.010;2023-09-19T06:39:26;15.00;;;3.33;;
24713;SDS011;12820;51.580;5.010;2023-09-19T06:44:28;16.38;;;2.67;;
24713;SDS011;12820;51.580;5.010;2023-09-19T06:49:31;21.15;;;2.65;;
24713;SDS011;12820;51.580;5.010;2023-09-19T06:54:33;18.52;;;2.90;;
24713;SDS011;12820;51.580;5.010;2023-09-19T06:59:36;14.98;;;2.83;;
24713;SDS011;12820;51.580;5.010;2023-09-19T07:04:39;17.55;;;2.50;;
24713;SDS011;12820;51.580;5.010;2023-09-19T07:09:41;14.60;;;3.05;;
24713;SDS011;12820;51.580;5.010;2023-09-19T07:14:44;19.63;;;2.95;;
24713;SDS011;12820;51.580;5.010;2023-09-19T07:19:46;12.18;;;2.72;;
24713;SDS011;12820;51.580;5.010;2023-09-19T07:24:50;16.10;;;2.75;;
24713;SDS011;12820;51.580;5.010;2023-09-19T07:29:52;18.40;;;2.92;;
24713;SDS011;12820;51.580;5.010;2023-09-19T07:34:56;13.95;;;2.65;;
24713;SDS011;12820;51.580;5.010;2023-09-19T07:40:05;18.40;;;3.03;;
24713;SDS011;12820;51.580;5.010;2023-09-19T07:45:09;22.47;;;3.20;;
24713;SDS011;12820;51.580;5.010;2023-09-19T07:50:16;16.63;;;2.78;;
24713;SDS011;12820;51.580;5.010;2023-09-19T07:55:22;14.77;;;2.45;;
24713;SDS011;12820;51.580;5.010;2023-09-19T08:00:27;17.92;;;2.92;;
24713;SDS011;12820;51.580;5.010;2023-09-19T08:05:29;18.27;;;2.90;;
24713;SDS011;12820;51.580;5.010;2023-09-19T08:10:34;16.92;;;3.00;;
24713;SDS011;12820;51.580;5.010;2023-09-19T08:15:40;17.02;;;3.17;;
24713;SDS011;12820;51.580;5.010;2023-09-19T08:20:49;14.93;;;2.80;;
24713;SDS011;12820;51.580;5.010;2023-09-19T08:25:56;14.43;;;2.65;;
24713;SDS011;12820;51.580;5.010;2023-09-19T08:31:05;14.23;;;2.63;;
24713;SDS011;12820;51.580;5.010;2023-09-19T08:36:08;17.23;;;2.88;;
24713;SDS011;12820;51.580;5.010;2023-09-19T08:41:11;18.77;;;2.80;;
24713;SDS011;12820;51.580;5.010;2023-09-19T08:46:17;15.48;;;2.20;;
24713;SDS011;12820;51.580;5.010;2023-09-19T08:51:26;17.65;;;2.72;;
24713;SDS011;12820;51.580;5.010;2023-09-19T08:56:31;17.50;;;3.17;;
24713;SDS011;12820;51.580;5.010;2023-09-19T09:01:35;14.45;;;2.97;;
24713;SDS011;12820;51.580;5.010;2023-09-19T09:06:37;17.60;;;3.13;;
24713;SDS011;12820;51.580;5.010;2023-09-19T09:11:41;16.95;;;2.70;;
24713;SDS011;12820;51.580;5.010;2023-09-19T09:16:43;18.13;;;3.40;;
24713;SDS011;12820;51.580;5.010;2023-09-19T09:21:47;15.65;;;2.70;;
24713;SDS011;12820;51.580;5.010;2023-09-19T09:26:49;17.83;;;2.53;;
24713;SDS011;12820;51.580;5.010;2023-09-19T09:31:54;14.93;;;2.63;;
24713;SDS011;12820;51.580;5.010;2023-09-19T09:36:56;16.50;;;2.88;;
24713;SDS011;12820;51.580;5.010;2023-09-19T09:41:58;12.75;;;2.70;;
24713;SDS011;12820;51.580;5.010;2023-09-19T09:47:01;10.43;;;2.38;;
24713;SDS011;12820;51.580;5.010;2023-09-19T09:52:22;12.50;;;2.30;;
24713;SDS011;12820;51.580;5.010;2023-09-19T09:57:26;14.20;;;2.40;;
24713;SDS011;12820;51.580;5.010;2023-09-19T10:02:29;12.82;;;2.17;;
24713;SDS011;12820;51.580;5.010;2023-09-19T10:07:35;12.13;;;2.20;;
24713;SDS011;12820;51.580;5.010;2023-09-19T10:12:46;13.73;;;2.20;;
24713;SDS011;12820;51.580;5.010;2023-09-19T10:17:50;10.77;;;2.30;;
24713;SDS011;12820;51.580;5.010;2023-09-19T10:22:56;17.05;;;2.53;;
24713;SDS011;12820;51.580;5.010;2023-09-19T10:28:00;12.65;;;2.47;;
24713;SDS011;12820;51.580;5.010;2023-09-19T10:33:06;12.88;;;1.95;;
24713;SDS011;12820;51.580;5.010;2023-09-19T10:38:13;14.15;;;2.60;;
24713;SDS011;12820;51.580;5.010;2023-09-19T10:43:21;14.02;;;2.40;;
24713;SDS011;12820;51.580;5.010;2023-09-19T10:48:27;10.23;;;2.05;;
24713;SDS011;12820;51.580;5.010;2023-09-19T10:53:31;10.55;;;1.80;;
24713;SDS011;12820;51.580;5.010;2023-09-19T10:59:06;8.35;;;1.75;;
24713;SDS011;12820;51.580;5.010;2023-09-19T11:09:44;6.97;;;1.50;;
24713;SDS011;12820;51.580;5.010;2023-09-19T11:15:03;7.93;;;1.45;;
24713;SDS011;12820;51.580;5.010;2023-09-19T11:20:17;9.52;;;1.90;;
24713;SDS011;12820;51.580;5.010;2023-09-19T11:36:04;6.70;;;1.10;;
24713;SDS011;12820;51.580;5.010;2023-09-19T11:46:30;6.85;;;1.50;;
24713;SDS011;12820;51.580;5.010;2023-09-19T11:51:39;6.25;;;1.25;;
24713;SDS011;12820;51.580;5.010;2023-09-19T11:56:45;9.18;;;1.58;;
24713;SDS011;12820;51.580;5.010;2023-09-19T12:01:51;6.65;;;1.02;;
24713;SDS011;12820;51.580;5.010;2023-09-19T12:07:01;6.47;;;1.13;;
24713;SDS011;12820;51.580;5.010;2023-09-19T12:12:03;6.20;;;0.98;;
24713;SDS011;12820;51.580;5.010;2023-09-19T12:17:06;6.80;;;1.10;;
24713;SDS011;12820;51.580;5.010;2023-09-19T12:22:08;6.90;;;1.17;;
24713;SDS011;12820;51.580;5.010;2023-09-19T12:27:11;6.72;;;1.27;;
24713;SDS011;12820;51.580;5.010;2023-09-19T12:32:13;5.30;;;1.30;;
24713;SDS011;12820;51.580;5.010;2023-09-19T12:37:18;5.95;;;1.20;;
24713;SDS011;12820;51.580;5.010;2023-09-19T12:42:24;7.20;;;1.00;;
24713;SDS011;12820;51.580;5.010;2023-09-19T12:47:34;5.97;;;1.00;;
24713;SDS011;12820;51.580;5.010;2023-09-19T12:52:37;6.72;;;1.00;;
24713;SDS011;12820;51.580;5.010;2023-09-19T12:57:40;8.15;;;1.30;;
24713;SDS011;12820;51.580;5.010;2023-09-19T13:03:09;10.55;;;3.72;;
24713;SDS011;12820;51.580;5.010;2023-09-19T13:08:34;17.45;;;6.15;;
24713;SDS011;12820;51.580;5.010;2023-09-19T13:13:44;7.70;;;2.35;;
24713;SDS011;12820;51.580;5.010;2023-09-19T13:18:55;10.73;;;4.15;;
24713;SDS011;12820;51.580;5.010;2023-09-19T13:29:21;8.63;;;3.63;;
24713;SDS011;12820;51.580;5.010;2023-09-19T13:34:23;8.35;;;1.80;;
24713;SDS011;12820;51.580;5.010;2023-09-19T13:39:26;8.07;;;2.58;;
24713;SDS011;12820;51.580;5.010;2023-09-19T13:44:28;9.02;;;3.35;;
24713;SDS011;12820;51.580;5.010;2023-09-19T13:49:31;7.78;;;1.90;;
24713;SDS011;12820;51.580;5.010;2023-09-19T13:54:34;10.75;;;4.72;;
24713;SDS011;12820;51.580;5.010;2023-09-19T13:59:36;4.70;;;1.17;;
24713;SDS011;12820;51.580;5.010;2023-09-19T14:04:38;7.45;;;2.33;;
24713;SDS011;12820;51.580;5.010;2023-09-19T14:09:40;9.48;;;2.10;;
24713;SDS011;12820;51.580;5.010;2023-09-19T14:14:43;8.23;;;1.58;;
24713;SDS011;12820;51.580;5.010;2023-09-19T14:19:47;6.28;;;1.60;;
24713;SDS011;12820;51.580;5.010;2023-09-19T14:24:49;6.28;;;1.33;;
24713;SDS011;12820;51.580;5.010;2023-09-19T14:29:51;6.55;;;1.35;;
24713;SDS011;12820;51.580;5.010;2023-09-19T14:34:53;7.70;;;1.83;;
24713;SDS011;12820;51.580;5.010;2023-09-19T14:39:55;6.03;;;1.52;;
24713;SDS011;12820;51.580;5.010;2023-09-19T14:44:57;9.10;;;1.77;;
24713;SDS011;12820;51.580;5.010;2023-09-19T14:50:02;8.57;;;2.30;;
24713;SDS011;12820;51.580;5.010;2023-09-19T14:55:08;7.93;;;1.48;;
24713;SDS011;12820;51.580;5.010;2023-09-19T15:00:13;9.73;;;1.55;;
24713;SDS011;12820;51.580;5.010;2023-09-19T15:05:16;9.55;;;1.80;;
24713;SDS011;12820;51.580;5.010;2023-09-19T15:10:21;8.90;;;1.20;;
24713;SDS011;12820;51.580;5.010;2023-09-19T15:15:24;9.48;;;1.48;;
24713;SDS011;12820;51.580;5.010;2023-09-19T15:20:26;11.48;;;1.85;;
24713;SDS011;12820;51.580;5.010;2023-09-19T15:25:29;9.07;;;1.35;;
24713;SDS011;12820;51.580;5.010;2023-09-19T15:30:31;8.13;;;1.70;;
24713;SDS011;12820;51.580;5.010;2023-09-19T15:35:33;6.00;;;1.30;;
24713;SDS011;12820;51.580;5.010;2023-09-19T15:40:45;7.97;;;1.70;;
24713;SDS011;12820;51.580;5.010;2023-09-19T15:45:49;8.73;;;1.80;;
24713;SDS011;12820;51.580;5.010;2023-09-19T15:50:51;8.10;;;1.50;;
24713;SDS011;12820;51.580;5.010;2023-09-19T15:55:53;5.53;;;1.40;;
24713;SDS011;12820;51.580;5.010;2023-09-19T16:00:56;6.43;;;1.20;;
24713;SDS011;12820;51.580;5.010;2023-09-19T16:05:58;11.02;;;1.80;;
24713;SDS011;12820;51.580;5.010;2023-09-19T16:11:00;11.50;;;2.08;;
24713;SDS011;12820;51.580;5.010;2023-09-19T16:16:03;6.68;;;1.70;;
24713;SDS011;12820;51.580;5.010;2023-09-19T16:21:06;5.85;;;1.63;;
24713;SDS011;12820;51.580;5.010;2023-09-19T16:26:10;10.32;;;1.55;;
24713;SDS011;12820;51.580;5.010;2023-09-19T16:31:14;8.30;;;1.88;;
24713;SDS011;12820;51.580;5.010;2023-09-19T16:36:17;8.85;;;1.42;;
24713;SDS011;12820;51.580;5.010;2023-09-19T16:41:20;9.07;;;1.90;;
24713;SDS011;12820;51.580;5.010;2023-09-19T16:46:23;6.53;;;1.40;;
24713;SDS011;12820;51.580;5.010;2023-09-19T16:51:27;7.47;;;1.83;;
24713;SDS011;12820;51.580;5.010;2023-09-19T16:56:30;8.70;;;1.60;;
24713;SDS011;12820;51.580;5.010;2023-09-19T17:01:35;8.98;;;2.00;;
24713;SDS011;12820;51.580;5.010;2023-09-19T17:06:38;9.75;;;1.70;;
24713;SDS011;12820;51.580;5.010;2023-09-19T17:11:41;9.65;;;2.20;;
24713;SDS011;12820;51.580;5.010;2023-09-19T17:16:43;7.95;;;1.90;;
24713;SDS011;12820;51.580;5.010;2023-09-19T17:21:46;8.38;;;1.95;;
24713;SDS011;12820;51.580;5.010;2023-09-19T17:26:48;9.50;;;1.90;;
24713;SDS011;12820;51.580;5.010;2023-09-19T17:31:51;9.73;;;2.00;;
24713;SDS011;12820;51.580;5.010;2023-09-19T17:36:53;7.63;;;2.17;;
24713;SDS011;12820;51.580;5.010;2023-09-19T17:41:56;9.68;;;2.10;;
24713;SDS011;12820;51.580;5.010;2023-09-19T17:46:58;9.95;;;2.35;;
24713;SDS011;12820;51.580;5.010;2023-09-19T17:52:00;9.25;;;1.88;;
24713;SDS011;12820;51.580;5.010;2023-09-19T17:57:03;10.82;;;2.30;;
24713;SDS011;12820;51.580;5.010;2023-09-19T18:02:05;11.15;;;2.88;;
24713;SDS011;12820;51.580;5.010;2023-09-19T18:07:07;11.38;;;2.10;;
24713;SDS011;12820;51.580;5.010;2023-09-19T18:12:10;9.77;;;2.45;;
24713;SDS011;12820;51.580;5.010;2023-09-19T18:17:13;9.10;;;2.75;;
24713;SDS011;12820;51.580;5.010;2023-09-19T18:22:16;8.68;;;2.10;;
24713;SDS011;12820;51.580;5.010;2023-09-19T18:27:18;11.60;;;2.20;;
24713;SDS011;12820;51.580;5.010;2023-09-19T18:32:22;10.02;;;2.10;;
24713;SDS011;12820;51.580;5.010;2023-09-19T18:37:25;11.00;;;2.65;;
24713;SDS011;12820;51.580;5.010;2023-09-19T18:42:28;11.90;;;2.83;;
24713;SDS011;12820;51.580;5.010;2023-09-19T18:47:31;8.48;;;2.33;;
24713;SDS011;12820;51.580;5.010;2023-09-19T18:52:33;7.70;;;2.40;;
24713;SDS011;12820;51.580;5.010;2023-09-19T18:57:36;10.63;;;2.70;;
24713;SDS011;12820;51.580;5.010;2023-09-19T19:02:38;9.63;;;2.15;;
24713;SDS011;12820;51.580;5.010;2023-09-19T19:07:41;12.68;;;2.50;;
24713;SDS011;12820;51.580;5.010;2023-09-19T19:12:43;11.85;;;1.92;;
24713;SDS011;12820;51.580;5.010;2023-09-19T19:17:46;11.35;;;2.38;;
24713;SDS011;12820;51.580;5.010;2023-09-19T19:22:49;12.52;;;2.38;;
24713;SDS011;12820;51.580;5.010;2023-09-19T19:27:51;9.57;;;2.10;;
24713;SDS011;12820;51.580;5.010;2023-09-19T19:32:54;9.63;;;2.25;;
24713;SDS011;12820;51.580;5.010;2023-09-19T19:37:57;9.68;;;2.08;;
24713;SDS011;12820;51.580;5.010;2023-09-19T19:43:01;12.10;;;2.03;;
24713;SDS011;12820;51.580;5.010;2023-09-19T19:48:04;10.75;;;2.20;;
24713;SDS011;12820;51.580;5.010;2023-09-19T19:53:07;9.80;;;2.00;;
24713;SDS011;12820;51.580;5.010;2023-09-19T19:58:09;8.15;;;1.90;;
24713;SDS011;12820;51.580;5.010;2023-09-19T20:03:11;8.15;;;1.77;;
24713;SDS011;12820;51.580;5.010;2023-09-19T20:08:14;9.80;;;2.30;;
24713;SDS011;12820;51.580;5.010;2023-09-19T20:13:16;9.18;;;2.00;;
24713;SDS011;12820;51.580;5.010;2023-09-19T20:18:19;7.47;;;1.92;;
24713;SDS011;12820;51.580;5.010;2023-09-19T20:23:21;9.85;;;2.00;;
24713;SDS011;12820;51.580;5.010;2023-09-19T20:28:24;7.28;;;1.83;;
24713;SDS011;12820;51.580;5.010;2023-09-19T20:33:26;8.88;;;2.28;;
24713;SDS011;12820;51.580;5.010;2023-09-19T20:38:29;10.25;;;2.00;;
24713;SDS011;12820;51.580;5.010;2023-09-19T20:43:31;12.15;;;2.50;;
24713;SDS011;12820;51.580;5.010;2023-09-19T20:48:35;7.85;;;1.90;;
24713;SDS011;12820;51.580;5.010;2023-09-19T20:53:38;7.88;;;1.80;;
24713;SDS011;12820;51.580;5.010;2023-09-19T20:58:42;9.43;;;2.25;;
24713;SDS011;12820;51.580;5.010;2023-09-19T21:03:46;10.75;;;1.77;;
24713;SDS011;12820;51.580;5.010;2023-09-19T21:08:48;8.85;;;2.10;;
24713;SDS011;12820;51.580;5.010;2023-09-19T21:13:51;11.88;;;2.30;;
24713;SDS011;12820;51.580;5.010;2023-09-19T21:18:54;8.85;;;2.00;;
24713;SDS011;12820;51.580;5.010;2023-09-19T21:23:57;12.35;;;2.50;;
24713;SDS011;12820;51.580;5.010;2023-09-19T21:28:59;9.93;;;2.10;;
24713;SDS011;12820;51.580;5.010;2023-09-19T21:34:02;8.60;;;2.22;;
24713;SDS011;12820;51.580;5.010;2023-09-19T21:39:06;13.32;;;3.03;;
24713;SDS011;12820;51.580;5.010;2023-09-19T21:44:09;10.57;;;2.40;;
24713;SDS011;12820;51.580;5.010;2023-09-19T21:49:11;11.10;;;2.17;;
24713;SDS011;12820;51.580;5.010;2023-09-19T21:54:14;8.57;;;2.00;;
24713;SDS011;12820;51.580;5.010;2023-09-19T21:59:16;11.15;;;2.55;;
24713;SDS011;12820;51.580;5.010;2023-09-19T22:04:19;9.02;;;2.33;;
24713;SDS011;12820;51.580;5.010;2023-09-19T22:09:23;11.10;;;2.10;;
24713;SDS011;12820;51.580;5.010;2023-09-19T22:14:26;9.88;;;2.10;;
24713;SDS011;12820;51.580;5.010;2023-09-19T22:19:31;7.75;;;1.88;;
24713;SDS011;12820;51.580;5.010;2023-09-19T22:24:33;10.82;;;2.17;;
24713;SDS011;12820;51.580;5.010;2023-09-19T22:29:35;9.43;;;2.28;;
24713;SDS011;12820;51.580;5.010;2023-09-19T22:34:38;13.48;;;2.30;;
24713;SDS011;12820;51.580;5.010;2023-09-19T22:39:40;12.45;;;2.38;;
24713;SDS011;12820;51.580;5.010;2023-09-19T22:44:44;9.98;;;2.45;;
24713;SDS011;12820;51.580;5.010;2023-09-19T22:49:47;10.70;;;2.85;;
24713;SDS011;12820;51.580;5.010;2023-09-19T22:54:50;13.52;;;2.45;;
24713;SDS011;12820;51.580;5.010;2023-09-19T22:59:53;10.48;;;2.65;;
24713;SDS011;12820;51.580;5.010;2023-09-19T23:04:55;10.60;;;2.45;;
24713;SDS011;12820;51.580;5.010;2023-09-19T23:10:03;10.40;;;2.70;;
24713;SDS011;12820;51.580;5.010;2023-09-19T23:15:07;9.30;;;2.40;;
24713;SDS011;12820;51.580;5.010;2023-09-19T23:20:13;7.20;;;2.08;;
24713;SDS011;12820;51.580;5.010;2023-09-19T23:25:19;8.13;;;2.15;;
24713;SDS011;12820;51.580;5.010;2023-09-19T23:30:30;10.37;;;2.10;;
24713;SDS011;12820;51.580;5.010;2023-09-19T23:35:34;12.30;;;2.60;;
24713;SDS011;12820;51.580;5.010;2023-09-19T23:40:36;12.77;;;2.63;;
24713;SDS011;12820;51.580;5.010;2023-09-19T23:45:41;12.60;;;3.30;;
24713;SDS011;12820;51.580;5.010;2023-09-19T23:50:43;7.13;;;2.17;;
24713;SDS011;12820;51.580;5.010;2023-09-19T23:55:49;11.13;;;2.55;;
